Tintina, Argentina
Current Conditions -  °F | °C
As of 12:00 AM on Tuesday 21 Oct 2014 (Local Time) from SANT Reporting Station
Clear Clear  
Wind Chill: 64°   Ceiling: Unl
Heat Index: 64°   Visibility: 6mi
Dew Point: 61°   Wind: 5mph
Humidity: 88%   Direction: 270°W
Pressure: 30.09"   Gusts: NA
Location:  27.03°S, 62.72°W
Report Text: SANT 210300Z 27004KT 9000 NSC 18/16 Q1019
Loading
Personal Weather Stations






























Interactive Weather Map
Tropical Storm Tracking
New forecast layout! Learn more

10-Day Weather Forecast

Advertisements
Track Severe Weather on mobile